createdAt,value
2023-02-13T00:01:06.237Z,0.16
2023-02-13T00:06:08.816Z,0.08
2023-02-13T00:11:11.156Z,0.04
2023-02-13T00:16:13.582Z,0.13
2023-02-13T00:21:15.997Z,0.31
2023-02-13T00:26:20.475Z,0.29
2023-02-13T00:31:22.993Z,0.25
2023-02-13T00:36:25.539Z,0.23
2023-02-13T00:41:27.954Z,0.22
2023-02-13T00:46:30.315Z,0.18
2023-02-13T00:51:32.808Z,0.30
2023-02-13T00:56:35.115Z,0.29
2023-02-13T01:01:37.611Z,0.34
2023-02-13T01:06:40.199Z,0.40
2023-02-13T01:11:42.573Z,0.41
2023-02-13T01:16:44.937Z,0.32
2023-02-13T01:21:47.474Z,0.33
2023-02-13T01:26:49.824Z,0.31
2023-02-13T01:31:52.420Z,0.31
2023-02-13T01:36:54.892Z,0.36
2023-02-13T01:41:57.275Z,0.30
2023-02-13T01:46:59.610Z,0.36
2023-02-13T01:52:01.944Z,0.43
2023-02-13T01:57:04.316Z,0.32
2023-02-13T02:02:06.864Z,0.31
2023-02-13T02:07:09.306Z,0.31
2023-02-13T02:12:11.663Z,0.23
2023-02-13T02:17:14.002Z,0.18
2023-02-13T02:22:16.341Z,0.18
2023-02-13T02:27:18.667Z,0.17
2023-02-13T02:32:20.922Z,0.27
2023-02-13T02:37:23.342Z,0.38
2023-02-13T02:42:25.740Z,0.14
2023-02-13T02:47:45.716Z,0.11
2023-02-13T02:52:48.033Z,0.08
2023-02-13T02:58:07.770Z,-0.05
2023-02-13T03:03:27.767Z,-0.02
2023-02-13T03:08:44.126Z,-0.04
2023-02-13T03:13:46.483Z,-0.03
2023-02-13T03:19:06.611Z,-0.05
2023-02-13T03:24:08.926Z,0.08
2023-02-13T03:29:28.973Z,0.08
2023-02-13T03:34:51.370Z,-0.08
2023-02-13T03:39:53.804Z,0.09
2023-02-13T03:45:10.051Z,-0.02
2023-02-13T03:50:12.560Z,-0.01
2023-02-13T03:55:32.451Z,0.03
2023-02-13T04:00:34.767Z,0.07
2023-02-13T04:05:37.168Z,0.11
2023-02-13T04:10:39.540Z,0.10
2023-02-13T04:15:41.814Z,0.12
2023-02-13T04:20:44.083Z,0.20
2023-02-13T04:25:46.380Z,0.20
2023-02-13T04:30:50.100Z,0.33
2023-02-13T04:35:52.443Z,0.29
2023-02-13T04:40:54.748Z,0.23
2023-02-13T04:45:57.202Z,0.45
2023-02-13T04:50:59.714Z,0.58
2023-02-13T04:56:02.123Z,0.64
2023-02-13T05:01:04.475Z,0.75
2023-02-13T05:06:06.860Z,0.85
2023-02-13T05:11:09.193Z,0.76
2023-02-13T05:16:11.809Z,0.47
2023-02-13T05:21:37.295Z,0.37
2023-02-13T05:26:39.562Z,0.34
2023-02-13T05:31:42.031Z,0.37
2023-02-13T05:36:44.505Z,0.28
2023-02-13T05:41:46.832Z,0.28
2023-02-13T05:46:49.334Z,0.30
2023-02-13T05:51:52.428Z,0.44
2023-02-13T05:56:54.802Z,0.56
2023-02-13T06:01:57.243Z,0.67
2023-02-13T06:06:59.545Z,0.71
2023-02-13T06:12:01.879Z,0.82
2023-02-13T06:17:04.492Z,0.79
2023-02-13T06:22:09.253Z,0.79
2023-02-13T06:27:11.527Z,0.92
2023-02-13T06:32:13.819Z,0.96
2023-02-13T06:37:16.185Z,0.99
2023-02-13T06:42:19.248Z,1.04
2023-02-13T06:47:21.637Z,1.20
2023-02-13T06:52:24.028Z,1.20
2023-02-13T06:57:27.149Z,1.11
2023-02-13T07:02:29.632Z,0.95
2023-02-13T07:07:32.035Z,0.93
2023-02-13T07:12:34.606Z,0.97
2023-02-13T07:17:37.280Z,1.08
2023-02-13T07:22:39.684Z,1.27
2023-02-13T07:27:42.511Z,1.44
2023-02-13T07:32:44.981Z,1.61
2023-02-13T07:37:47.390Z,1.49
2023-02-13T07:42:50.061Z,1.55
2023-02-13T07:47:52.530Z,1.49
2023-02-13T07:52:55.045Z,1.39
2023-02-13T07:57:57.469Z,1.24
2023-02-13T08:03:00.090Z,1.10
2023-02-13T08:08:02.483Z,1.27
2023-02-13T08:13:06.185Z,1.28
2023-02-13T08:18:09.344Z,1.34
2023-02-13T08:23:11.775Z,1.29
2023-02-13T08:28:14.242Z,1.23
2023-02-13T08:33:16.715Z,1.30
2023-02-13T08:38:19.098Z,1.25
2023-02-13T08:43:21.468Z,1.59
2023-02-13T08:48:23.855Z,1.63
2023-02-13T08:53:26.569Z,1.75
2023-02-13T08:58:29.052Z,1.93
2023-02-13T09:03:31.535Z,1.69
2023-02-13T09:08:33.934Z,1.78
2023-02-13T09:13:37.063Z,1.60
2023-02-13T09:18:40.040Z,1.74
2023-02-13T09:23:42.433Z,1.58
2023-02-13T09:28:44.840Z,1.96
2023-02-13T09:33:47.326Z,2.07
2023-02-13T09:38:49.712Z,2.26
2023-02-13T09:43:52.096Z,2.24
2023-02-13T09:48:54.484Z,2.51
2023-02-13T09:53:57.092Z,2.70
2023-02-13T09:58:59.467Z,2.74
2023-02-13T10:04:02.934Z,3.02
2023-02-13T10:09:05.229Z,2.98
2023-02-13T10:14:07.578Z,3.18
2023-02-13T10:19:10.259Z,2.97
2023-02-13T10:24:12.755Z,2.52
2023-02-13T10:29:32.854Z,1.86
2023-02-13T10:34:35.229Z,1.93
2023-02-13T10:39:37.691Z,2.11
2023-02-13T10:44:40.113Z,2.09
2023-02-13T10:49:42.499Z,1.90
2023-02-13T10:54:46.709Z,1.90
2023-02-13T10:59:49.227Z,1.96
2023-02-13T11:04:51.999Z,2.05
2023-02-13T11:09:54.438Z,2.39
2023-02-13T11:14:56.757Z,1.83
2023-02-13T11:19:59.501Z,1.79
2023-02-13T11:25:01.819Z,2.57
2023-02-13T11:30:04.146Z,2.82
2023-02-13T11:35:07.039Z,2.50
2023-02-13T11:40:09.423Z,2.68
2023-02-13T11:45:11.798Z,2.75
2023-02-13T11:50:14.306Z,2.49
2023-02-13T11:55:16.637Z,2.52
2023-02-13T12:00:18.916Z,2.41
2023-02-13T12:05:21.273Z,2.62
2023-02-13T12:10:23.746Z,2.62
2023-02-13T12:15:26.289Z,2.76
2023-02-13T12:20:28.724Z,2.66
2023-02-13T12:25:31.226Z,2.59
2023-02-13T12:30:33.753Z,2.81
2023-02-13T12:35:36.073Z,2.55
2023-02-13T12:40:38.344Z,2.37
2023-02-13T12:45:41.032Z,2.27
2023-02-13T12:50:43.706Z,2.06
2023-02-13T12:55:46.048Z,2.59
2023-02-13T13:00:49.062Z,2.81
2023-02-13T13:06:03.624Z,2.93
2023-02-13T13:11:13.264Z,2.62
2023-02-13T13:16:16.862Z,2.37
2023-02-13T13:21:19.538Z,2.32
2023-02-13T13:26:23.156Z,2.13
2023-02-13T13:31:26.415Z,2.29
2023-02-13T13:36:28.929Z,2.82
2023-02-13T13:41:31.313Z,2.10
2023-02-13T13:46:33.684Z,2.11
2023-02-13T13:51:36.004Z,1.95
2023-02-13T13:56:38.342Z,2.20
2023-02-13T14:01:40.709Z,2.21
2023-02-13T14:06:43.131Z,2.38
2023-02-13T14:11:47.220Z,2.39
2023-02-13T14:16:50.203Z,2.58
2023-02-13T14:21:52.565Z,2.49
2023-02-13T14:27:04.902Z,2.53
2023-02-13T14:32:07.950Z,2.46
2023-02-13T14:37:10.435Z,2.13
2023-02-13T14:42:13.049Z,2.24
2023-02-13T14:47:15.517Z,2.29
2023-02-13T14:52:17.858Z,2.35
2023-02-13T14:57:20.482Z,1.91
2023-02-13T15:02:23.089Z,1.65
2023-02-13T15:07:25.469Z,1.74
2023-02-13T15:12:27.987Z,2.06
2023-02-13T15:17:30.673Z,1.98
2023-02-13T15:22:33.136Z,2.09
2023-02-13T15:27:35.630Z,1.76
2023-02-13T15:32:38.093Z,1.58
2023-02-13T15:37:40.455Z,1.59
2023-02-13T15:42:42.790Z,1.65
2023-02-13T15:47:45.181Z,1.84
2023-02-13T15:52:47.599Z,2.00
2023-02-13T15:57:50.072Z,1.89
2023-02-13T16:02:52.452Z,1.79
2023-02-13T16:07:54.813Z,1.60
2023-02-13T16:12:57.159Z,1.61
2023-02-13T16:17:59.498Z,1.39
2023-02-13T16:23:02.051Z,1.21
2023-02-13T16:28:05.698Z,1.19
2023-02-13T16:33:08.059Z,1.16
2023-02-13T16:38:10.489Z,1.10
2023-02-13T16:43:12.888Z,0.95
2023-02-13T16:48:15.203Z,1.05
2023-02-13T16:53:17.605Z,1.12
2023-02-13T16:58:20.035Z,1.15
2023-02-13T17:03:22.561Z,1.27
2023-02-13T17:08:25.040Z,1.30
2023-02-13T17:13:27.466Z,1.38
2023-02-13T17:18:29.769Z,1.21
2023-02-13T17:23:32.126Z,1.33
2023-02-13T17:28:34.598Z,1.37
2023-02-13T17:33:38.334Z,1.22
2023-02-13T17:38:40.640Z,1.13
2023-02-13T17:43:43.084Z,1.14
2023-02-13T17:48:45.622Z,1.19
2023-02-13T17:53:47.955Z,1.33
2023-02-13T17:58:50.357Z,1.14
2023-02-13T18:03:52.668Z,0.95
2023-02-13T18:08:55.018Z,0.70
2023-02-13T18:13:57.333Z,0.82
2023-02-13T18:18:59.918Z,0.84
2023-02-13T18:24:02.257Z,0.69
2023-02-13T18:29:04.613Z,0.66
2023-02-13T18:34:07.356Z,0.64
2023-02-13T18:39:09.668Z,0.67
2023-02-13T18:44:17.372Z,0.76
2023-02-13T18:49:25.860Z,0.53
2023-02-13T18:54:28.381Z,0.73
2023-02-13T18:59:30.694Z,0.74
2023-02-13T19:04:35.056Z,0.79
2023-02-13T19:09:40.281Z,0.57
2023-02-13T19:14:44.133Z,0.23
2023-02-13T19:19:48.365Z,0.01
2023-02-13T19:24:50.730Z,-0.10
2023-02-13T19:29:53.064Z,-0.11
2023-02-13T19:34:55.436Z,0.09
2023-02-13T19:39:57.919Z,-0.12
2023-02-13T19:45:00.262Z,-0.21
2023-02-13T19:50:02.607Z,-0.23
2023-02-13T19:55:05.103Z,-0.38
2023-02-13T20:00:09.359Z,-0.34
2023-02-13T20:05:12.100Z,-0.23
2023-02-13T20:10:14.473Z,-0.25
2023-02-13T20:15:16.736Z,-0.22
2023-02-13T20:20:19.142Z,-0.34
2023-02-13T20:25:22.913Z,-0.31
2023-02-13T20:30:25.289Z,-0.24
2023-02-13T20:35:27.612Z,-0.08
2023-02-13T20:40:29.892Z,-0.08
2023-02-13T20:45:32.344Z,-0.05
2023-02-13T20:50:34.737Z,0.05
2023-02-13T20:55:37.043Z,-0.08
2023-02-13T21:00:39.630Z,-0.49
2023-02-13T21:05:42.424Z,-0.72
2023-02-13T21:10:44.899Z,-0.80
2023-02-13T21:15:49.451Z,-0.83
2023-02-13T21:20:51.865Z,-0.60
2023-02-13T21:25:54.145Z,-0.59
2023-02-13T21:30:56.954Z,-0.50
2023-02-13T21:35:59.675Z,-0.65
2023-02-13T21:41:01.988Z,-0.66
2023-02-13T21:46:04.426Z,-0.62
2023-02-13T21:51:06.815Z,-0.47
2023-02-13T21:56:09.284Z,-0.51
2023-02-13T22:01:20.537Z,-0.35
2023-02-13T22:06:27.698Z,-0.17
2023-02-13T22:11:30.097Z,-0.11
2023-02-13T22:16:32.423Z,-0.12
2023-02-13T22:21:35.092Z,0.02
2023-02-13T22:26:37.571Z,0.12
2023-02-13T22:31:40.033Z,0.22
2023-02-13T22:36:42.960Z,0.14
2023-02-13T22:41:45.660Z,0.22
2023-02-13T22:46:50.160Z,0.14
2023-02-13T22:51:52.421Z,0.19
2023-02-13T22:56:54.788Z,0.29
2023-02-13T23:01:57.110Z,0.39
2023-02-13T23:06:59.460Z,0.24
2023-02-13T23:12:19.710Z,0.16
2023-02-13T23:17:39.544Z,-0.03
2023-02-13T23:22:41.994Z,-0.30
2023-02-13T23:27:44.359Z,-0.35
2023-02-13T23:32:46.747Z,-0.20
2023-02-13T23:37:49.167Z,-0.06
2023-02-13T23:42:51.702Z,0.07
2023-02-13T23:47:54.000Z,0.08
2023-02-13T23:52:56.428Z,0.09
2023-02-13T23:57:59.126Z,0.01
